createdAt,value
2018-06-20T00:00:03.208Z,331
2018-06-20T00:00:15.668Z,340
2018-06-20T00:00:28.114Z,327
2018-06-20T00:00:40.563Z,335
2018-06-20T00:00:53.008Z,305
2018-06-20T00:01:05.415Z,265
2018-06-20T00:01:18.037Z,267
2018-06-20T00:01:30.462Z,355
2018-06-20T00:01:42.869Z,309
2018-06-20T00:01:55.335Z,329
2018-06-20T00:02:07.824Z,338
2018-06-20T00:02:20.251Z,36
2018-06-20T00:02:32.658Z,351
2018-06-20T00:02:45.062Z,324
2018-06-20T00:02:57.482Z,348
2018-06-20T00:03:09.889Z,329
2018-06-20T00:03:22.353Z,329
2018-06-20T00:03:34.743Z,336
2018-06-20T00:03:47.153Z,355
2018-06-20T00:03:59.565Z,355
2018-06-20T00:04:11.962Z,321
2018-06-20T00:04:24.365Z,347
2018-06-20T00:04:36.759Z,347
2018-06-20T00:04:49.167Z,325
2018-06-20T00:05:01.574Z,342
2018-06-20T00:05:13.972Z,327
2018-06-20T00:05:26.378Z,313
2018-06-20T00:05:38.762Z,355
2018-06-20T00:05:51.150Z,346
2018-06-20T00:06:03.546Z,345
2018-06-20T00:06:15.966Z,320
2018-06-20T00:06:28.384Z,318
2018-06-20T00:06:40.836Z,312
2018-06-20T00:06:53.253Z,323
2018-06-20T00:07:05.670Z,323
2018-06-20T00:07:18.229Z,304
2018-06-20T00:07:31.765Z,328
2018-06-20T00:07:44.171Z,318
2018-06-20T00:07:56.566Z,325
2018-06-20T00:08:08.987Z,338
2018-06-20T00:08:21.464Z,319
2018-06-20T00:08:33.879Z,305
2018-06-20T00:08:46.275Z,305
2018-06-20T00:08:58.690Z,300
2018-06-20T00:09:11.100Z,330
2018-06-20T00:09:23.526Z,335
2018-06-20T00:09:35.949Z,313
2018-06-20T00:09:48.359Z,344
2018-06-20T00:10:00.773Z,355
2018-06-20T00:10:13.189Z,355
2018-06-20T00:10:25.615Z,355
2018-06-20T00:10:38.007Z,355
2018-06-20T00:10:50.419Z,342
2018-06-20T00:11:02.809Z,332
2018-06-20T00:11:15.220Z,332
2018-06-20T00:11:27.652Z,295
2018-06-20T00:11:40.320Z,323
2018-06-20T00:11:52.713Z,325
2018-06-20T00:12:05.128Z,340
2018-06-20T00:12:17.570Z,333
2018-06-20T00:12:29.993Z,317
2018-06-20T00:12:42.431Z,313
2018-06-20T00:12:54.832Z,323
2018-06-20T00:13:07.296Z,330
2018-06-20T00:13:19.712Z,335
2018-06-20T00:13:32.145Z,335
2018-06-20T00:13:44.635Z,336
2018-06-20T00:13:57.066Z,326
2018-06-20T00:14:09.505Z,338
2018-06-20T00:14:21.933Z,345
2018-06-20T00:14:34.336Z,345
2018-06-20T00:14:46.853Z,335
2018-06-20T00:14:59.280Z,350
2018-06-20T00:15:11.724Z,350
2018-06-20T00:15:24.143Z,350
2018-06-20T00:15:36.550Z,343
2018-06-20T00:15:48.991Z,342
2018-06-20T00:16:01.417Z,338
2018-06-20T00:16:13.817Z,338
2018-06-20T00:16:26.244Z,338
2018-06-20T00:16:38.709Z,298
2018-06-20T00:16:51.122Z,300
2018-06-20T00:17:03.533Z,300
2018-06-20T00:17:15.919Z,300
2018-06-20T00:17:28.321Z,328
2018-06-20T00:17:40.707Z,333
2018-06-20T00:17:53.185Z,329
2018-06-20T00:18:05.598Z,346
2018-06-20T00:18:18.012Z,338
2018-06-20T00:18:30.399Z,355
2018-06-20T00:18:42.823Z,296
2018-06-20T00:18:55.231Z,315
2018-06-20T00:19:07.663Z,320
2018-06-20T00:19:20.213Z,320
2018-06-20T00:19:32.607Z,317
2018-06-20T00:19:45.053Z,321
2018-06-20T00:19:57.470Z,321
2018-06-20T00:20:09.903Z,321
2018-06-20T00:20:22.328Z,321
2018-06-20T00:20:34.757Z,321
2018-06-20T00:20:47.180Z,321
2018-06-20T00:20:59.589Z,321
2018-06-20T00:21:12.019Z,321
2018-06-20T00:21:24.452Z,321
2018-06-20T00:21:36.869Z,321
2018-06-20T00:21:49.287Z,330
2018-06-20T00:22:01.688Z,330
2018-06-20T00:22:14.098Z,330
2018-06-20T00:22:26.504Z,330
2018-06-20T00:22:38.908Z,330
2018-06-20T00:22:51.332Z,330
2018-06-20T00:23:03.738Z,330
2018-06-20T00:23:16.150Z,330
2018-06-20T00:23:28.574Z,330
2018-06-20T00:23:40.971Z,330
2018-06-20T00:23:53.396Z,330
2018-06-20T00:24:05.821Z,330
2018-06-20T00:24:18.262Z,330
2018-06-20T00:24:30.685Z,330
2018-06-20T00:24:43.175Z,330
2018-06-20T00:24:55.617Z,330
2018-06-20T00:25:08.032Z,330
2018-06-20T00:25:20.453Z,330
2018-06-20T00:25:32.869Z,319
2018-06-20T00:25:45.270Z,313
2018-06-20T00:25:57.683Z,327
2018-06-20T00:26:10.107Z,327
2018-06-20T00:26:22.514Z,338
2018-06-20T00:26:34.923Z,338
2018-06-20T00:26:47.346Z,338
2018-06-20T00:26:59.764Z,338
2018-06-20T00:27:12.169Z,338
2018-06-20T00:27:24.603Z,338
2018-06-20T00:27:37.064Z,338
2018-06-20T00:27:49.483Z,338
2018-06-20T00:28:02.001Z,338
2018-06-20T00:28:14.467Z,338
2018-06-20T00:28:26.899Z,316
2018-06-20T00:28:39.311Z,316
2018-06-20T00:28:51.731Z,316
2018-06-20T00:29:04.317Z,316
2018-06-20T00:29:16.696Z,316
2018-06-20T00:29:29.101Z,316
2018-06-20T00:29:41.499Z,316
2018-06-20T00:29:53.907Z,316
2018-06-20T00:30:06.321Z,316
2018-06-20T00:30:18.758Z,316
2018-06-20T00:30:31.173Z,316
2018-06-20T00:30:43.590Z,316
2018-06-20T00:30:56.003Z,316
2018-06-20T00:31:08.494Z,316
2018-06-20T00:31:20.913Z,316
2018-06-20T00:31:33.331Z,316
2018-06-20T00:31:45.751Z,19
2018-06-20T00:31:58.153Z,19
2018-06-20T00:32:10.568Z,34
2018-06-20T00:32:22.958Z,5
2018-06-20T00:32:35.379Z,28
2018-06-20T00:32:47.912Z,28
2018-06-20T00:33:00.319Z,11
2018-06-20T00:33:12.738Z,355
2018-06-20T00:33:25.460Z,5
2018-06-20T00:33:37.849Z,5
2018-06-20T00:33:50.256Z,5
2018-06-20T00:34:02.667Z,5
2018-06-20T00:34:15.062Z,5
2018-06-20T00:34:27.470Z,5
2018-06-20T00:34:39.887Z,5
2018-06-20T00:34:52.305Z,5
2018-06-20T00:35:04.715Z,5
2018-06-20T00:35:17.127Z,5
2018-06-20T00:35:29.622Z,5
2018-06-20T00:35:42.056Z,5
2018-06-20T00:35:54.470Z,5
2018-06-20T00:36:06.884Z,5
2018-06-20T00:36:19.317Z,5
2018-06-20T00:36:31.706Z,5
2018-06-20T00:36:44.165Z,5
2018-06-20T00:36:56.559Z,5
2018-06-20T00:37:08.966Z,5
2018-06-20T00:37:21.397Z,5
2018-06-20T00:37:33.799Z,5
2018-06-20T00:37:46.204Z,5
2018-06-20T00:37:58.624Z,5
2018-06-20T00:38:11.035Z,5
2018-06-20T00:38:23.456Z,5
2018-06-20T00:38:35.904Z,360
2018-06-20T00:38:48.293Z,360
2018-06-20T00:39:00.708Z,360
2018-06-20T00:39:13.102Z,5
2018-06-20T00:39:25.505Z,5
2018-06-20T00:39:38.000Z,5
2018-06-20T00:39:50.425Z,5
2018-06-20T00:40:02.841Z,5
2018-06-20T00:40:15.255Z,5
2018-06-20T00:40:27.660Z,343
2018-06-20T00:40:40.061Z,300
2018-06-20T00:40:52.481Z,308
2018-06-20T00:41:04.885Z,321
2018-06-20T00:41:17.300Z,308
2018-06-20T00:41:29.698Z,327
2018-06-20T00:41:42.095Z,346
2018-06-20T00:41:54.813Z,327
2018-06-20T00:42:07.214Z,319
2018-06-20T00:42:19.624Z,322
2018-06-20T00:42:32.128Z,327
2018-06-20T00:42:44.546Z,327
2018-06-20T00:42:56.941Z,294
2018-06-20T00:43:09.347Z,325
2018-06-20T00:43:21.741Z,325
2018-06-20T00:43:34.142Z,325
2018-06-20T00:43:46.543Z,324
2018-06-20T00:43:58.961Z,324
2018-06-20T00:44:11.402Z,324
2018-06-20T00:44:23.824Z,324
2018-06-20T00:44:36.227Z,324
2018-06-20T00:44:48.634Z,324
2018-06-20T00:45:01.109Z,324
2018-06-20T00:45:13.552Z,324
2018-06-20T00:45:25.959Z,325
2018-06-20T00:45:38.357Z,325
2018-06-20T00:45:50.771Z,325
2018-06-20T00:46:03.331Z,325
2018-06-20T00:46:15.734Z,325
2018-06-20T00:46:28.149Z,325
2018-06-20T00:46:40.536Z,325
2018-06-20T00:46:52.967Z,325
2018-06-20T00:47:05.381Z,325
2018-06-20T00:47:17.779Z,325
2018-06-20T00:47:30.182Z,325
2018-06-20T00:47:42.578Z,325
2018-06-20T00:47:54.969Z,325
2018-06-20T00:48:07.351Z,325
2018-06-20T00:48:19.772Z,325
2018-06-20T00:48:32.189Z,325
2018-06-20T00:48:44.724Z,325
2018-06-20T00:48:57.125Z,325
2018-06-20T00:49:09.535Z,325
2018-06-20T00:49:21.938Z,325
2018-06-20T00:49:34.329Z,325
2018-06-20T00:49:46.723Z,325
2018-06-20T00:49:59.138Z,325
2018-06-20T00:50:11.545Z,329
2018-06-20T00:50:23.953Z,329
2018-06-20T00:50:36.386Z,308
2018-06-20T00:50:48.835Z,322
2018-06-20T00:51:01.228Z,348
2018-06-20T00:51:13.620Z,5
2018-06-20T00:51:26.108Z,349
2018-06-20T00:51:38.545Z,323
2018-06-20T00:51:50.954Z,302
2018-06-20T00:52:03.357Z,296
2018-06-20T00:52:15.780Z,299
2018-06-20T00:52:28.237Z,299
2018-06-20T00:52:40.805Z,299
2018-06-20T00:52:53.221Z,300
2018-06-20T00:53:05.645Z,300
2018-06-20T00:53:18.054Z,302
2018-06-20T00:53:30.502Z,302
2018-06-20T00:53:42.917Z,302
2018-06-20T00:53:55.319Z,316
2018-06-20T00:54:07.730Z,316
2018-06-20T00:54:20.113Z,316
2018-06-20T00:54:32.518Z,316
2018-06-20T00:54:44.938Z,316
2018-06-20T00:54:57.357Z,316
2018-06-20T00:55:09.763Z,316
2018-06-20T00:55:22.207Z,316
2018-06-20T00:55:34.636Z,316
2018-06-20T00:55:47.073Z,316
2018-06-20T00:55:59.487Z,316
2018-06-20T00:56:11.907Z,316
2018-06-20T00:56:24.423Z,316
2018-06-20T00:56:36.835Z,316
2018-06-20T00:56:49.234Z,316
2018-06-20T00:57:01.650Z,316
2018-06-20T00:57:14.041Z,316
2018-06-20T00:57:26.438Z,316
2018-06-20T00:57:38.838Z,316
2018-06-20T00:57:51.260Z,316
2018-06-20T00:58:03.675Z,316
2018-06-20T00:58:16.088Z,316
2018-06-20T00:58:28.480Z,316
2018-06-20T00:58:41.131Z,316
2018-06-20T00:58:53.537Z,316
2018-06-20T00:59:05.960Z,316
2018-06-20T00:59:18.378Z,316
2018-06-20T00:59:30.783Z,360
2018-06-20T00:59:43.167Z,355
2018-06-20T00:59:55.559Z,355
2018-06-20T01:00:07.995Z,355
2018-06-20T01:00:20.460Z,355
2018-06-20T01:00:32.890Z,355
2018-06-20T01:00:45.320Z,355
2018-06-20T01:00:57.813Z,355
2018-06-20T01:01:10.317Z,355
2018-06-20T01:01:22.731Z,355
2018-06-20T01:01:35.135Z,355
2018-06-20T01:01:47.571Z,355
2018-06-20T01:01:59.991Z,346
2018-06-20T01:02:12.461Z,327
2018-06-20T01:02:24.871Z,328
2018-06-20T01:02:37.302Z,334
2018-06-20T01:02:49.708Z,334
2018-06-20T01:03:02.142Z,334
2018-06-20T01:03:14.583Z,334
2018-06-20T01:03:27.013Z,334
2018-06-20T01:03:39.436Z,334
2018-06-20T01:03:51.852Z,334
2018-06-20T01:04:04.261Z,334
2018-06-20T01:04:16.671Z,334
2018-06-20T01:04:29.083Z,334
2018-06-20T01:04:41.502Z,334
2018-06-20T01:04:53.924Z,334
2018-06-20T01:05:06.348Z,334
2018-06-20T01:05:18.757Z,334
2018-06-20T01:05:31.154Z,334
2018-06-20T01:05:43.554Z,334
2018-06-20T01:05:55.981Z,334
2018-06-20T01:06:08.424Z,334
2018-06-20T01:06:20.823Z,334
2018-06-20T01:06:33.235Z,334
2018-06-20T01:06:45.644Z,334
2018-06-20T01:06:58.042Z,334
2018-06-20T01:07:10.437Z,334
2018-06-20T01:07:23.172Z,334
2018-06-20T01:07:35.581Z,334
2018-06-20T01:07:48.001Z,334
2018-06-20T01:08:00.389Z,334
2018-06-20T01:08:12.810Z,334
2018-06-20T01:08:25.211Z,334
2018-06-20T01:08:37.615Z,334
2018-06-20T01:08:50.084Z,334
2018-06-20T01:09:02.487Z,334
2018-06-20T01:09:14.962Z,334
2018-06-20T01:09:27.359Z,334
2018-06-20T01:09:39.768Z,334
2018-06-20T01:09:52.179Z,334
2018-06-20T01:10:04.592Z,334
2018-06-20T01:10:16.989Z,334
2018-06-20T01:10:29.389Z,334
2018-06-20T01:10:41.780Z,334
2018-06-20T01:10:54.183Z,334
2018-06-20T01:11:06.593Z,334
2018-06-20T01:11:18.993Z,334
2018-06-20T01:11:31.631Z,334
2018-06-20T01:11:45.686Z,334
2018-06-20T01:12:00.600Z,334
2018-06-20T01:12:13.021Z,334
2018-06-20T01:12:25.422Z,334
2018-06-20T01:12:37.813Z,334
2018-06-20T01:12:50.223Z,334
2018-06-20T01:13:02.642Z,334
2018-06-20T01:13:15.046Z,334
2018-06-20T01:13:27.439Z,334
2018-06-20T01:13:39.845Z,334
2018-06-20T01:13:52.234Z,334
2018-06-20T01:14:04.694Z,334
2018-06-20T01:14:17.083Z,334
2018-06-20T01:14:29.475Z,334
2018-06-20T01:14:41.868Z,334
2018-06-20T01:14:54.290Z,334
2018-06-20T01:15:06.698Z,334
2018-06-20T01:15:19.103Z,334
2018-06-20T01:15:31.555Z,334
2018-06-20T01:15:43.937Z,334
2018-06-20T01:15:56.409Z,334
2018-06-20T01:16:08.803Z,334
2018-06-20T01:16:21.209Z,334
2018-06-20T01:16:33.629Z,334
2018-06-20T01:16:46.058Z,334
2018-06-20T01:16:58.503Z,334
2018-06-20T01:17:10.902Z,334
2018-06-20T01:17:23.313Z,334
2018-06-20T01:17:35.748Z,334
2018-06-20T01:17:48.144Z,334
2018-06-20T01:18:00.806Z,334
2018-06-20T01:18:13.223Z,334
2018-06-20T01:18:25.627Z,334
2018-06-20T01:18:38.041Z,334
2018-06-20T01:18:50.456Z,334
2018-06-20T01:19:02.870Z,334
2018-06-20T01:19:15.453Z,334
2018-06-20T01:19:27.856Z,334
2018-06-20T01:19:40.277Z,334
2018-06-20T01:19:52.718Z,334
2018-06-20T01:20:05.126Z,334
2018-06-20T01:20:17.548Z,334
2018-06-20T01:20:29.944Z,334
2018-06-20T01:20:42.374Z,334
2018-06-20T01:20:54.849Z,334
2018-06-20T01:21:07.266Z,334
2018-06-20T01:21:19.669Z,334
2018-06-20T01:21:32.078Z,334
2018-06-20T01:21:44.527Z,334
2018-06-20T01:21:56.927Z,334
2018-06-20T01:22:09.346Z,334
2018-06-20T01:22:21.735Z,334
2018-06-20T01:22:34.199Z,334
2018-06-20T01:22:46.659Z,334
2018-06-20T01:22:59.067Z,334
2018-06-20T01:23:11.477Z,334
2018-06-20T01:23:23.893Z,334
2018-06-20T01:23:36.296Z,334
2018-06-20T01:23:48.708Z,334
2018-06-20T01:24:01.102Z,334
2018-06-20T01:24:13.635Z,334
2018-06-20T01:24:26.047Z,334
2018-06-20T01:24:38.433Z,336
2018-06-20T01:24:50.857Z,336
2018-06-20T01:25:03.258Z,336
2018-06-20T01:25:15.656Z,336
2018-06-20T01:25:28.060Z,336
2018-06-20T01:25:40.475Z,336
2018-06-20T01:25:52.877Z,336
2018-06-20T01:26:05.351Z,336
2018-06-20T01:26:17.756Z,336
2018-06-20T01:26:30.172Z,336
2018-06-20T01:26:42.599Z,336
2018-06-20T01:26:55.002Z,336
2018-06-20T01:27:07.423Z,336
2018-06-20T01:27:19.820Z,336
2018-06-20T01:27:32.286Z,336
2018-06-20T01:27:44.695Z,338
2018-06-20T01:27:57.298Z,338
2018-06-20T01:28:09.700Z,338
2018-06-20T01:28:22.167Z,338
2018-06-20T01:28:34.571Z,338
2018-06-20T01:28:46.958Z,338
2018-06-20T01:28:59.449Z,338
2018-06-20T01:29:11.861Z,338
2018-06-20T01:29:24.261Z,338
2018-06-20T01:29:36.661Z,338
2018-06-20T01:29:49.066Z,338
2018-06-20T01:30:01.533Z,338
2018-06-20T01:30:13.932Z,338
2018-06-20T01:30:26.327Z,338
2018-06-20T01:30:38.732Z,338
2018-06-20T01:30:51.147Z,338
2018-06-20T01:31:03.672Z,338
2018-06-20T01:31:16.074Z,338
2018-06-20T01:31:28.478Z,338
2018-06-20T01:31:40.879Z,338
2018-06-20T01:31:53.294Z,338
2018-06-20T01:32:05.706Z,338
2018-06-20T01:32:18.120Z,338
2018-06-20T01:32:30.536Z,338
2018-06-20T01:32:42.965Z,338
2018-06-20T01:32:55.355Z,338
2018-06-20T01:33:07.759Z,338
2018-06-20T01:33:20.148Z,338
2018-06-20T01:33:32.564Z,343
2018-06-20T01:33:44.960Z,34
2018-06-20T01:33:57.396Z,40
2018-06-20T01:34:09.808Z,347
2018-06-20T01:34:22.189Z,333
2018-06-20T01:34:34.608Z,339
2018-06-20T01:34:47.003Z,339
2018-06-20T01:34:59.404Z,339
2018-06-20T01:35:11.814Z,339
2018-06-20T01:35:24.220Z,339
2018-06-20T01:35:36.635Z,339
2018-06-20T01:35:49.021Z,339
2018-06-20T01:36:01.443Z,339
2018-06-20T01:36:13.841Z,315
2018-06-20T01:36:26.248Z,318
2018-06-20T01:36:38.647Z,309
2018-06-20T01:36:51.042Z,317
2018-06-20T01:37:03.473Z,314
2018-06-20T01:37:15.893Z,314
2018-06-20T01:37:28.350Z,336
2018-06-20T01:37:40.775Z,360
2018-06-20T01:37:53.181Z,360
2018-06-20T01:38:05.615Z,355
2018-06-20T01:38:18.011Z,342
2018-06-20T01:38:30.417Z,348
2018-06-20T01:38:42.837Z,348
2018-06-20T01:38:55.279Z,348
2018-06-20T01:39:07.709Z,348
2018-06-20T01:39:20.277Z,348
2018-06-20T01:39:32.696Z,348
2018-06-20T01:39:45.107Z,348
2018-06-20T01:39:57.503Z,348
2018-06-20T01:40:09.905Z,348
2018-06-20T01:40:22.330Z,348
2018-06-20T01:40:34.750Z,348
2018-06-20T01:40:47.140Z,348
2018-06-20T01:40:59.549Z,348
2018-06-20T01:41:11.969Z,348
2018-06-20T01:41:24.393Z,348
2018-06-20T01:41:36.834Z,348
2018-06-20T01:41:49.245Z,348
2018-06-20T01:42:01.745Z,348
2018-06-20T01:42:14.153Z,348
2018-06-20T01:42:26.564Z,348
2018-06-20T01:42:38.950Z,348
2018-06-20T01:42:51.356Z,348
2018-06-20T01:43:03.768Z,348
2018-06-20T01:43:16.180Z,319
2018-06-20T01:43:28.591Z,319
2018-06-20T01:43:40.983Z,319
2018-06-20T01:43:53.445Z,319
2018-06-20T01:44:05.858Z,319
2018-06-20T01:44:18.291Z,319
2018-06-20T01:44:30.711Z,319
2018-06-20T01:44:43.106Z,320
2018-06-20T01:44:55.517Z,5
2018-06-20T01:45:07.952Z,9
2018-06-20T01:45:20.366Z,9
2018-06-20T01:45:32.773Z,9
2018-06-20T01:45:45.186Z,350
2018-06-20T01:45:57.781Z,15
2018-06-20T01:46:10.189Z,15
2018-06-20T01:46:22.593Z,5
2018-06-20T01:46:34.994Z,9
2018-06-20T01:46:47.408Z,5
2018-06-20T01:46:59.848Z,5
2018-06-20T01:47:12.258Z,5
2018-06-20T01:47:24.650Z,5
2018-06-20T01:47:37.060Z,5
2018-06-20T01:47:49.457Z,5
2018-06-20T01:48:01.881Z,5
2018-06-20T01:48:14.291Z,5
2018-06-20T01:48:26.844Z,5
2018-06-20T01:48:39.919Z,5
2018-06-20T01:48:52.339Z,5
2018-06-20T01:49:04.772Z,5
2018-06-20T01:49:17.162Z,5
2018-06-20T01:49:29.571Z,5
2018-06-20T01:49:41.968Z,5
2018-06-20T01:49:54.386Z,5
2018-06-20T01:50:06.809Z,11
2018-06-20T01:50:19.211Z,5
2018-06-20T01:50:31.623Z,5
2018-06-20T01:50:44.025Z,5
2018-06-20T01:50:56.422Z,5
2018-06-20T01:51:08.825Z,5
2018-06-20T01:51:21.226Z,5
2018-06-20T01:51:33.626Z,5
2018-06-20T01:51:46.013Z,5
2018-06-20T01:51:58.409Z,5
2018-06-20T01:52:10.818Z,25
2018-06-20T01:52:23.228Z,26
2018-06-20T01:52:35.631Z,25
2018-06-20T01:52:48.045Z,25
2018-06-20T01:53:00.450Z,25
2018-06-20T01:53:12.857Z,27
2018-06-20T01:53:25.261Z,30
2018-06-20T01:53:37.709Z,30
2018-06-20T01:53:50.145Z,30
2018-06-20T01:54:02.542Z,317
2018-06-20T01:54:14.936Z,317
2018-06-20T01:54:27.348Z,317
2018-06-20T01:54:39.788Z,317
2018-06-20T01:54:52.250Z,317
2018-06-20T01:55:04.712Z,338
2018-06-20T01:55:17.144Z,336
2018-06-20T01:55:29.563Z,336
2018-06-20T01:55:42.707Z,336
2018-06-20T01:55:55.862Z,336
2018-06-20T01:56:08.359Z,336
2018-06-20T01:56:20.790Z,336
2018-06-20T01:56:33.237Z,313
2018-06-20T01:56:45.657Z,312
2018-06-20T01:56:58.083Z,327
2018-06-20T01:57:10.521Z,326
2018-06-20T01:57:22.933Z,323
2018-06-20T01:57:35.328Z,313
2018-06-20T01:57:47.761Z,313
2018-06-20T01:58:00.230Z,313
2018-06-20T01:58:12.637Z,313
2018-06-20T01:58:25.082Z,313
2018-06-20T01:58:37.505Z,313
2018-06-20T01:58:49.924Z,313
2018-06-20T01:59:02.321Z,313
2018-06-20T01:59:15.455Z,313
2018-06-20T01:59:27.876Z,313
2018-06-20T01:59:40.287Z,360
2018-06-20T01:59:52.701Z,360
2018-06-20T02:00:05.119Z,348
2018-06-20T02:00:17.539Z,348
2018-06-20T02:00:29.980Z,13
2018-06-20T02:00:42.407Z,13
2018-06-20T02:00:54.831Z,34
2018-06-20T02:01:07.394Z,40
2018-06-20T02:01:19.836Z,40
2018-06-20T02:01:32.299Z,5
2018-06-20T02:01:44.704Z,5
2018-06-20T02:01:57.115Z,5
2018-06-20T02:02:09.539Z,5
2018-06-20T02:02:21.979Z,5
2018-06-20T02:02:34.374Z,5
2018-06-20T02:02:46.794Z,5
2018-06-20T02:02:59.225Z,5
2018-06-20T02:03:11.632Z,5
2018-06-20T02:03:24.041Z,5
2018-06-20T02:03:36.446Z,5
2018-06-20T02:03:48.851Z,5
2018-06-20T02:04:01.271Z,5
2018-06-20T02:04:13.687Z,5
2018-06-20T02:04:26.087Z,5
2018-06-20T02:04:38.555Z,5
2018-06-20T02:04:50.977Z,5
2018-06-20T02:05:03.433Z,5
2018-06-20T02:05:16.019Z,346
2018-06-20T02:05:28.509Z,346
2018-06-20T02:05:40.966Z,346
2018-06-20T02:05:53.446Z,346
2018-06-20T02:06:05.851Z,345
2018-06-20T02:06:18.258Z,344
2018-06-20T02:06:30.676Z,336
2018-06-20T02:06:43.097Z,321
2018-06-20T02:06:55.540Z,291
2018-06-20T02:07:08.012Z,288
2018-06-20T02:07:20.552Z,306
2018-06-20T02:07:32.963Z,306
2018-06-20T02:07:45.369Z,318
2018-06-20T02:07:57.790Z,318
2018-06-20T02:08:10.206Z,318
2018-06-20T02:08:22.596Z,317
2018-06-20T02:08:35.067Z,317
2018-06-20T02:08:47.503Z,317
2018-06-20T02:08:59.954Z,294
2018-06-20T02:09:12.363Z,306
2018-06-20T02:09:24.781Z,313
2018-06-20T02:09:37.190Z,311
2018-06-20T02:09:49.591Z,327
2018-06-20T02:10:01.991Z,326
2018-06-20T02:10:14.440Z,321
2018-06-20T02:10:26.835Z,350
2018-06-20T02:10:39.264Z,338
2018-06-20T02:10:51.655Z,314
2018-06-20T02:11:04.190Z,321
2018-06-20T02:11:16.611Z,327
2018-06-20T02:11:29.003Z,335
2018-06-20T02:11:41.457Z,340
2018-06-20T02:11:54.012Z,340
2018-06-20T02:12:06.408Z,340
2018-06-20T02:12:18.841Z,340
2018-06-20T02:12:31.229Z,340
2018-06-20T02:12:43.625Z,340
2018-06-20T02:12:56.034Z,329
2018-06-20T02:13:08.429Z,355
2018-06-20T02:13:20.830Z,5
2018-06-20T02:13:33.219Z,5
2018-06-20T02:13:45.665Z,360
2018-06-20T02:13:58.113Z,360
2018-06-20T02:14:10.516Z,360
2018-06-20T02:14:22.932Z,360
2018-06-20T02:14:35.338Z,360
2018-06-20T02:14:47.737Z,360
2018-06-20T02:15:00.143Z,360
2018-06-20T02:15:12.564Z,360
2018-06-20T02:15:24.997Z,360
2018-06-20T02:15:37.427Z,360
2018-06-20T02:15:49.852Z,360
2018-06-20T02:16:02.346Z,360
2018-06-20T02:16:14.790Z,360
2018-06-20T02:16:27.187Z,360
2018-06-20T02:16:39.593Z,360
2018-06-20T02:16:51.995Z,360
2018-06-20T02:17:04.401Z,360
2018-06-20T02:17:16.807Z,360
2018-06-20T02:17:29.216Z,360
2018-06-20T02:17:41.609Z,9
2018-06-20T02:17:54.164Z,5
2018-06-20T02:18:06.625Z,5
2018-06-20T02:18:19.033Z,9
2018-06-20T02:18:31.435Z,9
2018-06-20T02:18:43.841Z,5
2018-06-20T02:18:56.268Z,5
2018-06-20T02:19:08.692Z,5
2018-06-20T02:19:21.261Z,5
2018-06-20T02:19:33.691Z,5
2018-06-20T02:19:46.100Z,5
2018-06-20T02:19:58.540Z,5
2018-06-20T02:20:10.998Z,5
2018-06-20T02:20:23.415Z,12
2018-06-20T02:20:35.820Z,12
2018-06-20T02:20:48.209Z,12
2018-06-20T02:21:00.623Z,17
2018-06-20T02:21:13.045Z,22
2018-06-20T02:21:25.481Z,19
2018-06-20T02:21:37.893Z,360
2018-06-20T02:21:50.284Z,360
2018-06-20T02:22:02.684Z,336
2018-06-20T02:22:15.091Z,333
2018-06-20T02:22:27.511Z,337
2018-06-20T02:22:39.926Z,337
2018-06-20T02:22:52.333Z,337
2018-06-20T02:23:04.753Z,337
2018-06-20T02:23:17.187Z,337
2018-06-20T02:23:29.609Z,337
2018-06-20T02:23:42.022Z,340
2018-06-20T02:23:54.420Z,340
2018-06-20T02:24:06.841Z,342
2018-06-20T02:24:19.278Z,26
2018-06-20T02:24:31.696Z,26
2018-06-20T02:24:44.101Z,36
2018-06-20T02:24:56.508Z,42
2018-06-20T02:25:08.920Z,42
2018-06-20T02:25:21.322Z,42
2018-06-20T02:25:33.748Z,40
2018-06-20T02:25:46.161Z,32
2018-06-20T02:25:58.572Z,350
2018-06-20T02:26:10.992Z,350
2018-06-20T02:26:23.403Z,5
2018-06-20T02:26:35.787Z,5
2018-06-20T02:26:48.186Z,5
2018-06-20T02:27:00.590Z,38
2018-06-20T02:27:12.987Z,15
2018-06-20T02:27:25.392Z,19
2018-06-20T02:27:37.813Z,29
2018-06-20T02:27:50.221Z,29
2018-06-20T02:28:02.775Z,11
2018-06-20T02:28:15.195Z,15
2018-06-20T02:28:27.624Z,19
2018-06-20T02:28:40.123Z,19
2018-06-20T02:28:52.528Z,19
2018-06-20T02:29:05.016Z,19
2018-06-20T02:29:17.434Z,19
2018-06-20T02:29:29.847Z,5
2018-06-20T02:29:42.266Z,16
2018-06-20T02:29:54.694Z,5
2018-06-20T02:30:07.112Z,342
2018-06-20T02:30:19.577Z,342
2018-06-20T02:30:32.046Z,10
2018-06-20T02:30:44.484Z,355
2018-06-20T02:30:56.938Z,5
2018-06-20T02:31:09.431Z,31
2018-06-20T02:31:21.848Z,336
2018-06-20T02:31:34.279Z,15
2018-06-20T02:31:46.731Z,28
2018-06-20T02:31:59.168Z,29
2018-06-20T02:32:11.607Z,32
2018-06-20T02:32:24.039Z,32
2018-06-20T02:32:36.467Z,32
2018-06-20T02:32:48.889Z,32
2018-06-20T02:33:01.310Z,32
2018-06-20T02:33:13.741Z,336
2018-06-20T02:33:26.311Z,336
2018-06-20T02:33:38.726Z,17
2018-06-20T02:33:51.160Z,22
2018-06-20T02:34:03.600Z,342
2018-06-20T02:34:16.005Z,337
2018-06-20T02:34:28.424Z,337
2018-06-20T02:34:40.855Z,338
2018-06-20T02:34:53.280Z,22
2018-06-20T02:35:05.741Z,11
2018-06-20T02:35:18.191Z,11
2018-06-20T02:35:30.622Z,5
2018-06-20T02:35:43.083Z,43
2018-06-20T02:35:55.498Z,18
2018-06-20T02:36:07.942Z,360
2018-06-20T02:36:20.455Z,360
2018-06-20T02:36:32.916Z,19
2018-06-20T02:36:46.300Z,10
2018-06-20T02:36:59.321Z,10
2018-06-20T02:37:11.766Z,10
2018-06-20T02:37:24.201Z,10
2018-06-20T02:37:36.628Z,10
2018-06-20T02:37:49.062Z,10
2018-06-20T02:38:01.478Z,10
2018-06-20T02:38:13.918Z,12
2018-06-20T02:38:26.439Z,16
2018-06-20T02:38:38.865Z,15
2018-06-20T02:38:51.295Z,15
2018-06-20T02:39:03.735Z,15
2018-06-20T02:39:16.154Z,13
2018-06-20T02:39:28.583Z,11
2018-06-20T02:39:41.045Z,9
2018-06-20T02:39:53.621Z,29
2018-06-20T02:40:06.057Z,15
2018-06-20T02:40:18.493Z,355
2018-06-20T02:40:30.911Z,347
2018-06-20T02:40:43.380Z,350
2018-06-20T02:40:55.818Z,355
2018-06-20T02:41:08.264Z,338
2018-06-20T02:41:20.687Z,337
2018-06-20T02:41:33.093Z,329
2018-06-20T02:41:45.511Z,339
2018-06-20T02:41:58.047Z,339
2018-06-20T02:42:10.463Z,342
2018-06-20T02:42:22.893Z,348
2018-06-20T02:42:35.302Z,348
2018-06-20T02:42:47.745Z,330
2018-06-20T02:43:00.188Z,326
2018-06-20T02:43:12.616Z,332
2018-06-20T02:43:25.067Z,332
2018-06-20T02:43:37.483Z,332
2018-06-20T02:43:49.926Z,348
2018-06-20T02:44:02.354Z,351
2018-06-20T02:44:14.841Z,355
2018-06-20T02:44:27.315Z,355
2018-06-20T02:44:39.768Z,355
2018-06-20T02:44:52.229Z,355
2018-06-20T02:45:04.669Z,355
2018-06-20T02:45:17.076Z,355
2018-06-20T02:45:29.503Z,355
2018-06-20T02:45:41.964Z,355
2018-06-20T02:45:54.521Z,355
2018-06-20T02:46:06.985Z,355
2018-06-20T02:46:19.401Z,355
2018-06-20T02:46:31.840Z,355
2018-06-20T02:46:44.300Z,355
2018-06-20T02:46:56.763Z,355
2018-06-20T02:47:09.197Z,355
2018-06-20T02:47:21.704Z,355
2018-06-20T02:47:34.115Z,355
2018-06-20T02:47:46.518Z,355
2018-06-20T02:47:58.989Z,355
2018-06-20T02:48:11.404Z,355
2018-06-20T02:48:23.813Z,355
2018-06-20T02:48:36.412Z,355
2018-06-20T02:48:48.833Z,351
2018-06-20T02:49:01.253Z,350
2018-06-20T02:49:13.690Z,350
2018-06-20T02:49:26.160Z,350
2018-06-20T02:49:38.617Z,320
2018-06-20T02:49:51.037Z,323
2018-06-20T02:50:03.485Z,319
2018-06-20T02:50:15.993Z,319
2018-06-20T02:50:28.440Z,5
2018-06-20T02:50:40.855Z,5
2018-06-20T02:50:53.480Z,42
2018-06-20T02:51:05.880Z,39
2018-06-20T02:51:18.303Z,55
2018-06-20T02:51:30.735Z,51
2018-06-20T02:51:43.161Z,20
2018-06-20T02:51:55.584Z,26
2018-06-20T02:52:08.032Z,20
2018-06-20T02:52:20.458Z,22
2018-06-20T02:52:32.964Z,22
2018-06-20T02:52:46.236Z,22
2018-06-20T02:52:59.316Z,21
2018-06-20T02:53:11.777Z,17
2018-06-20T02:53:24.214Z,33